sensor_id;sensor_type;location;lat;lon;timestamp;P1;durP1;ratioP1;P2;durP2;ratioP2
41556;SDS011;27720;51.992;5.890;2022-09-20T00:01:21;2.38;;;0.80;;
41556;SDS011;27720;51.992;5.890;2022-09-20T00:03:52;1.40;;;0.60;;
41556;SDS011;27720;51.992;5.890;2022-09-20T00:06:20;2.03;;;1.30;;
41556;SDS011;27720;51.992;5.890;2022-09-20T00:08:53;6.60;;;0.80;;
41556;SDS011;27720;51.992;5.890;2022-09-20T00:11:20;3.47;;;1.60;;
41556;SDS011;27720;51.992;5.890;2022-09-20T00:13:52;2.67;;;0.85;;
41556;SDS011;27720;51.992;5.890;2022-09-20T00:16:24;5.18;;;0.70;;
41556;SDS011;27720;51.992;5.890;2022-09-20T00:18:55;4.63;;;1.00;;
41556;SDS011;27720;51.992;5.890;2022-09-20T00:21:25;3.97;;;1.38;;
41556;SDS011;27720;51.992;5.890;2022-09-20T00:23:55;1.20;;;0.70;;
41556;SDS011;27720;51.992;5.890;2022-09-20T00:26:22;5.47;;;0.82;;
41556;SDS011;27720;51.992;5.890;2022-09-20T00:28:48;2.78;;;0.73;;
41556;SDS011;27720;51.992;5.890;2022-09-20T00:31:15;1.83;;;0.77;;
41556;SDS011;27720;51.992;5.890;2022-09-20T00:33:42;0.77;;;0.45;;
41556;SDS011;27720;51.992;5.890;2022-09-20T00:36:39;2.22;;;0.60;;
41556;SDS011;27720;51.992;5.890;2022-09-20T00:39:08;2.80;;;0.90;;
41556;SDS011;27720;51.992;5.890;2022-09-20T00:47:10;8.63;;;1.15;;
41556;SDS011;27720;51.992;5.890;2022-09-20T00:49:58;2.35;;;0.68;;
41556;SDS011;27720;51.992;5.890;2022-09-20T00:52:34;2.63;;;0.70;;
41556;SDS011;27720;51.992;5.890;2022-09-20T00:55:02;2.92;;;0.70;;
41556;SDS011;27720;51.992;5.890;2022-09-20T00:57:31;4.18;;;0.63;;
41556;SDS011;27720;51.992;5.890;2022-09-20T01:00:03;4.60;;;1.23;;
41556;SDS011;27720;51.992;5.890;2022-09-20T01:02:34;1.60;;;0.63;;
41556;SDS011;27720;51.992;5.890;2022-09-20T01:05:06;3.83;;;0.77;;
41556;SDS011;27720;51.992;5.890;2022-09-20T01:07:34;2.63;;;0.60;;
41556;SDS011;27720;51.992;5.890;2022-09-20T01:10:00;2.60;;;0.60;;
41556;SDS011;27720;51.992;5.890;2022-09-20T01:12:28;3.25;;;0.75;;
41556;SDS011;27720;51.992;5.890;2022-09-20T01:14:56;1.75;;;0.68;;
41556;SDS011;27720;51.992;5.890;2022-09-20T01:17:27;6.13;;;0.80;;
41556;SDS011;27720;51.992;5.890;2022-09-20T01:20:09;1.20;;;0.57;;
41556;SDS011;27720;51.992;5.890;2022-09-20T01:25:16;2.17;;;0.50;;
41556;SDS011;27720;51.992;5.890;2022-09-20T01:27:52;3.70;;;0.60;;
41556;SDS011;27720;51.992;5.890;2022-09-20T01:30:25;0.88;;;0.85;;
41556;SDS011;27720;51.992;5.890;2022-09-20T01:36:00;3.70;;;0.82;;
41556;SDS011;27720;51.992;5.890;2022-09-20T01:38:34;4.88;;;0.70;;
41556;SDS011;27720;51.992;5.890;2022-09-20T01:41:32;1.02;;;0.60;;
41556;SDS011;27720;51.992;5.890;2022-09-20T01:44:12;3.60;;;0.60;;
41556;SDS011;27720;51.992;5.890;2022-09-20T01:46:42;5.78;;;0.50;;
41556;SDS011;27720;51.992;5.890;2022-09-20T01:52:02;1.25;;;0.50;;
41556;SDS011;27720;51.992;5.890;2022-09-20T02:00:07;2.95;;;0.65;;
41556;SDS011;27720;51.992;5.890;2022-09-20T02:14:37;0.93;;;0.60;;
41556;SDS011;27720;51.992;5.890;2022-09-20T02:17:17;3.25;;;0.52;;
41556;SDS011;27720;51.992;5.890;2022-09-20T02:20:43;2.97;;;0.60;;
41556;SDS011;27720;51.992;5.890;2022-09-20T02:26:06;4.55;;;0.63;;
41556;SDS011;27720;51.992;5.890;2022-09-20T02:34:50;3.60;;;0.70;;
41556;SDS011;27720;51.992;5.890;2022-09-20T02:40:19;2.47;;;0.68;;
41556;SDS011;27720;51.992;5.890;2022-09-20T02:43:03;5.70;;;0.80;;
41556;SDS011;27720;51.992;5.890;2022-09-20T02:45:42;4.03;;;0.60;;
41556;SDS011;27720;51.992;5.890;2022-09-20T02:48:19;2.33;;;0.73;;
41556;SDS011;27720;51.992;5.890;2022-09-20T02:58:59;2.43;;;0.70;;
41556;SDS011;27720;51.992;5.890;2022-09-20T03:10:07;2.40;;;0.60;;
41556;SDS011;27720;51.992;5.890;2022-09-20T03:18:15;3.13;;;0.63;;
41556;SDS011;27720;51.992;5.890;2022-09-20T03:23:50;1.13;;;0.47;;
41556;SDS011;27720;51.992;5.890;2022-09-20T03:37:49;5.13;;;0.70;;
41556;SDS011;27720;51.992;5.890;2022-09-20T03:45:59;1.05;;;0.50;;
41556;SDS011;27720;51.992;5.890;2022-09-20T03:48:42;1.95;;;0.60;;
41556;SDS011;27720;51.992;5.890;2022-09-20T03:51:25;2.92;;;0.68;;
41556;SDS011;27720;51.992;5.890;2022-09-20T03:56:51;1.75;;;0.73;;
41556;SDS011;27720;51.992;5.890;2022-09-20T04:02:55;0.70;;;0.55;;
41556;SDS011;27720;51.992;5.890;2022-09-20T04:08:33;3.83;;;0.80;;
41556;SDS011;27720;51.992;5.890;2022-09-20T04:11:13;1.40;;;0.70;;
41556;SDS011;27720;51.992;5.890;2022-09-20T04:13:54;4.95;;;0.73;;
41556;SDS011;27720;51.992;5.890;2022-09-20T04:16:26;2.33;;;0.77;;
41556;SDS011;27720;51.992;5.890;2022-09-20T04:21:56;2.28;;;0.70;;
41556;SDS011;27720;51.992;5.890;2022-09-20T04:27:13;5.72;;;1.00;;
41556;SDS011;27720;51.992;5.890;2022-09-20T04:29:52;1.27;;;0.70;;
41556;SDS011;27720;51.992;5.890;2022-09-20T04:32:39;2.55;;;0.73;;
41556;SDS011;27720;51.992;5.890;2022-09-20T04:48:22;1.85;;;0.80;;
41556;SDS011;27720;51.992;5.890;2022-09-20T04:54:15;1.98;;;0.75;;
41556;SDS011;27720;51.992;5.890;2022-09-20T05:11:23;1.85;;;0.95;;
41556;SDS011;27720;51.992;5.890;2022-09-20T05:31:33;1.70;;;0.60;;
41556;SDS011;27720;51.992;5.890;2022-09-20T05:37:14;2.95;;;1.10;;
41556;SDS011;27720;51.992;5.890;2022-09-20T05:40:12;2.08;;;0.98;;
41556;SDS011;27720;51.992;5.890;2022-09-20T05:54:06;1.52;;;0.80;;
41556;SDS011;27720;51.992;5.890;2022-09-20T05:57:10;2.95;;;1.02;;
41556;SDS011;27720;51.992;5.890;2022-09-20T06:00:00;4.18;;;1.13;;
41556;SDS011;27720;51.992;5.890;2022-09-20T06:16:11;1.02;;;0.68;;
41556;SDS011;27720;51.992;5.890;2022-09-20T06:19:24;2.28;;;0.63;;
41556;SDS011;27720;51.992;5.890;2022-09-20T06:21:52;3.22;;;0.80;;
41556;SDS011;27720;51.992;5.890;2022-09-20T06:26:51;4.63;;;1.13;;
41556;SDS011;27720;51.992;5.890;2022-09-20T06:29:26;3.42;;;1.23;;
41556;SDS011;27720;51.992;5.890;2022-09-20T06:31:57;6.88;;;1.00;;
41556;SDS011;27720;51.992;5.890;2022-09-20T06:34:23;1.35;;;0.90;;
41556;SDS011;27720;51.992;5.890;2022-09-20T06:36:53;2.85;;;0.90;;
41556;SDS011;27720;51.992;5.890;2022-09-20T06:43:11;3.17;;;0.80;;
41556;SDS011;27720;51.992;5.890;2022-09-20T06:45:39;0.75;;;0.60;;
41556;SDS011;27720;51.992;5.890;2022-09-20T06:48:07;4.50;;;0.75;;
41556;SDS011;27720;51.992;5.890;2022-09-20T06:50:37;1.98;;;0.75;;
41556;SDS011;27720;51.992;5.890;2022-09-20T06:53:04;2.10;;;0.70;;
41556;SDS011;27720;51.992;5.890;2022-09-20T06:55:31;1.30;;;0.90;;
41556;SDS011;27720;51.992;5.890;2022-09-20T06:58:05;2.58;;;0.93;;
41556;SDS011;27720;51.992;5.890;2022-09-20T07:00:33;2.50;;;0.73;;
41556;SDS011;27720;51.992;5.890;2022-09-20T07:02:59;2.50;;;0.98;;
41556;SDS011;27720;51.992;5.890;2022-09-20T07:05:24;3.72;;;1.23;;
41556;SDS011;27720;51.992;5.890;2022-09-20T07:07:55;3.25;;;1.25;;
41556;SDS011;27720;51.992;5.890;2022-09-20T07:12:47;1.80;;;0.95;;
41556;SDS011;27720;51.992;5.890;2022-09-20T07:15:13;4.32;;;1.08;;
41556;SDS011;27720;51.992;5.890;2022-09-20T07:17:43;1.65;;;0.82;;
41556;SDS011;27720;51.992;5.890;2022-09-20T07:20:09;2.65;;;0.90;;
41556;SDS011;27720;51.992;5.890;2022-09-20T07:22:35;1.52;;;0.90;;
41556;SDS011;27720;51.992;5.890;2022-09-20T07:25:01;2.85;;;0.90;;
41556;SDS011;27720;51.992;5.890;2022-09-20T07:27:27;2.03;;;0.90;;
41556;SDS011;27720;51.992;5.890;2022-09-20T07:29:54;5.28;;;1.23;;
41556;SDS011;27720;51.992;5.890;2022-09-20T07:32:20;2.45;;;0.68;;
41556;SDS011;27720;51.992;5.890;2022-09-20T07:34:46;3.95;;;0.88;;
41556;SDS011;27720;51.992;5.890;2022-09-20T07:37:12;1.25;;;0.70;;
41556;SDS011;27720;51.992;5.890;2022-09-20T07:39:38;4.10;;;0.80;;
41556;SDS011;27720;51.992;5.890;2022-09-20T07:42:03;1.25;;;0.80;;
41556;SDS011;27720;51.992;5.890;2022-09-20T07:44:32;1.65;;;0.75;;
41556;SDS011;27720;51.992;5.890;2022-09-20T07:47:13;2.47;;;0.47;;
41556;SDS011;27720;51.992;5.890;2022-09-20T07:56:29;4.22;;;0.50;;
41556;SDS011;27720;51.992;5.890;2022-09-20T07:58:56;1.00;;;0.52;;
41556;SDS011;27720;51.992;5.890;2022-09-20T08:01:22;1.00;;;0.70;;
41556;SDS011;27720;51.992;5.890;2022-09-20T08:04:00;2.58;;;0.75;;
41556;SDS011;27720;51.992;5.890;2022-09-20T08:06:36;2.35;;;0.63;;
41556;SDS011;27720;51.992;5.890;2022-09-20T08:09:09;4.13;;;1.23;;
41556;SDS011;27720;51.992;5.890;2022-09-20T08:11:44;2.65;;;0.88;;
41556;SDS011;27720;51.992;5.890;2022-09-20T08:14:14;3.33;;;1.05;;
41556;SDS011;27720;51.992;5.890;2022-09-20T08:16:42;2.28;;;0.88;;
41556;SDS011;27720;51.992;5.890;2022-09-20T08:19:13;1.90;;;0.80;;
41556;SDS011;27720;51.992;5.890;2022-09-20T08:21:44;1.70;;;0.80;;
41556;SDS011;27720;51.992;5.890;2022-09-20T08:24:16;6.57;;;1.17;;
41556;SDS011;27720;51.992;5.890;2022-09-20T08:26:45;1.30;;;0.63;;
41556;SDS011;27720;51.992;5.890;2022-09-20T08:29:21;4.38;;;1.30;;
41556;SDS011;27720;51.992;5.890;2022-09-20T08:31:47;1.65;;;0.82;;
41556;SDS011;27720;51.992;5.890;2022-09-20T08:34:14;3.25;;;1.00;;
41556;SDS011;27720;51.992;5.890;2022-09-20T08:36:49;3.33;;;0.80;;
41556;SDS011;27720;51.992;5.890;2022-09-20T08:39:42;1.67;;;0.85;;
41556;SDS011;27720;51.992;5.890;2022-09-20T08:42:19;2.47;;;0.80;;
41556;SDS011;27720;51.992;5.890;2022-09-20T08:44:59;1.33;;;0.45;;
41556;SDS011;27720;51.992;5.890;2022-09-20T08:48:00;1.42;;;0.50;;
41556;SDS011;27720;51.992;5.890;2022-09-20T08:50:36;0.70;;;0.68;;
41556;SDS011;27720;51.992;5.890;2022-09-20T08:53:02;1.42;;;0.50;;
41556;SDS011;27720;51.992;5.890;2022-09-20T08:55:39;4.72;;;0.63;;
41556;SDS011;27720;51.992;5.890;2022-09-20T08:58:10;3.42;;;0.77;;
41556;SDS011;27720;51.992;5.890;2022-09-20T09:00:44;2.85;;;0.77;;
41556;SDS011;27720;51.992;5.890;2022-09-20T09:03:12;2.47;;;0.70;;
41556;SDS011;27720;51.992;5.890;2022-09-20T09:05:54;2.75;;;0.70;;
41556;SDS011;27720;51.992;5.890;2022-09-20T09:08:35;1.20;;;0.77;;
41556;SDS011;27720;51.992;5.890;2022-09-20T09:11:04;3.20;;;0.75;;
41556;SDS011;27720;51.992;5.890;2022-09-20T09:16:23;1.83;;;0.57;;
41556;SDS011;27720;51.992;5.890;2022-09-20T09:18:55;1.20;;;0.50;;
41556;SDS011;27720;51.992;5.890;2022-09-20T09:21:27;1.50;;;0.63;;
41556;SDS011;27720;51.992;5.890;2022-09-20T09:26:45;1.27;;;0.50;;
41556;SDS011;27720;51.992;5.890;2022-09-20T09:29:49;0.70;;;0.50;;
41556;SDS011;27720;51.992;5.890;2022-09-20T09:32:21;2.88;;;0.70;;
41556;SDS011;27720;51.992;5.890;2022-09-20T09:34:48;1.55;;;0.60;;
41556;SDS011;27720;51.992;5.890;2022-09-20T09:37:27;1.40;;;0.68;;
41556;SDS011;27720;51.992;5.890;2022-09-20T09:40:10;1.90;;;0.95;;
41556;SDS011;27720;51.992;5.890;2022-09-20T09:42:55;1.25;;;0.52;;
41556;SDS011;27720;51.992;5.890;2022-09-20T09:47:54;0.55;;;0.40;;
41556;SDS011;27720;51.992;5.890;2022-09-20T09:50:29;0.82;;;0.40;;
41556;SDS011;27720;51.992;5.890;2022-09-20T09:53:11;3.13;;;0.60;;
41556;SDS011;27720;51.992;5.890;2022-09-20T09:58:29;0.45;;;0.35;;
41556;SDS011;27720;51.992;5.890;2022-09-20T10:00:58;2.83;;;0.68;;
41556;SDS011;27720;51.992;5.890;2022-09-20T10:06:25;1.25;;;0.90;;
41556;SDS011;27720;51.992;5.890;2022-09-20T10:17:58;2.15;;;0.40;;
41556;SDS011;27720;51.992;5.890;2022-09-20T10:29:12;2.10;;;0.50;;
41556;SDS011;27720;51.992;5.890;2022-09-20T10:43:48;1.92;;;0.43;;
41556;SDS011;27720;51.992;5.890;2022-09-20T10:49:30;1.52;;;0.40;;
41556;SDS011;27720;51.992;5.890;2022-09-20T10:55:10;2.72;;;0.50;;
41556;SDS011;27720;51.992;5.890;2022-09-20T11:03:20;1.20;;;0.73;;
41556;SDS011;27720;51.992;5.890;2022-09-20T11:08:22;1.20;;;0.47;;
41556;SDS011;27720;51.992;5.890;2022-09-20T11:10:59;1.20;;;0.52;;
41556;SDS011;27720;51.992;5.890;2022-09-20T11:16:28;1.30;;;0.40;;
41556;SDS011;27720;51.992;5.890;2022-09-20T11:19:16;1.23;;;0.50;;
41556;SDS011;27720;51.992;5.890;2022-09-20T11:21:59;2.15;;;0.60;;
41556;SDS011;27720;51.992;5.890;2022-09-20T11:29:57;2.08;;;0.43;;
41556;SDS011;27720;51.992;5.890;2022-09-20T11:32:35;1.15;;;0.70;;
41556;SDS011;27720;51.992;5.890;2022-09-20T11:37:46;1.70;;;0.50;;
41556;SDS011;27720;51.992;5.890;2022-09-20T11:42:54;1.08;;;0.57;;
41556;SDS011;27720;51.992;5.890;2022-09-20T11:45:29;0.52;;;0.40;;
41556;SDS011;27720;51.992;5.890;2022-09-20T11:47:57;4.63;;;0.60;;
41556;SDS011;27720;51.992;5.890;2022-09-20T11:53:39;1.50;;;0.40;;
41556;SDS011;27720;51.992;5.890;2022-09-20T11:56:21;1.85;;;0.50;;
41556;SDS011;27720;51.992;5.890;2022-09-20T11:58:50;3.08;;;0.45;;
41556;SDS011;27720;51.992;5.890;2022-09-20T12:01:22;2.78;;;0.50;;
41556;SDS011;27720;51.992;5.890;2022-09-20T12:03:52;1.17;;;0.40;;
41556;SDS011;27720;51.992;5.890;2022-09-20T12:06:28;3.00;;;0.60;;
41556;SDS011;27720;51.992;5.890;2022-09-20T12:09:06;1.67;;;0.73;;
41556;SDS011;27720;51.992;5.890;2022-09-20T12:11:48;1.27;;;0.55;;
41556;SDS011;27720;51.992;5.890;2022-09-20T12:14:17;1.75;;;0.80;;
41556;SDS011;27720;51.992;5.890;2022-09-20T12:16:48;1.23;;;0.38;;
41556;SDS011;27720;51.992;5.890;2022-09-20T12:24:28;0.90;;;0.40;;
41556;SDS011;27720;51.992;5.890;2022-09-20T12:26:56;0.82;;;0.40;;
41556;SDS011;27720;51.992;5.890;2022-09-20T12:31:59;0.40;;;0.30;;
41556;SDS011;27720;51.992;5.890;2022-09-20T12:39:27;2.55;;;0.55;;
41556;SDS011;27720;51.992;5.890;2022-09-20T12:47:05;1.58;;;0.35;;
41556;SDS011;27720;51.992;5.890;2022-09-20T13:03:36;0.20;;;0.20;;
41556;SDS011;27720;51.992;5.890;2022-09-20T13:16:53;1.55;;;0.40;;
41556;SDS011;27720;51.992;5.890;2022-09-20T13:19:34;1.25;;;0.40;;
41556;SDS011;27720;51.992;5.890;2022-09-20T13:24:47;2.05;;;0.65;;
41556;SDS011;27720;51.992;5.890;2022-09-20T13:27:17;1.42;;;0.40;;
41556;SDS011;27720;51.992;5.890;2022-09-20T13:29:48;2.45;;;0.45;;
41556;SDS011;27720;51.992;5.890;2022-09-20T13:32:30;1.02;;;0.40;;
41556;SDS011;27720;51.992;5.890;2022-09-20T13:35:17;0.85;;;0.30;;
41556;SDS011;27720;51.992;5.890;2022-09-20T13:45:54;3.90;;;0.63;;
41556;SDS011;27720;51.992;5.890;2022-09-20T13:48:37;0.60;;;0.30;;
41556;SDS011;27720;51.992;5.890;2022-09-20T13:51:13;1.25;;;0.30;;
41556;SDS011;27720;51.992;5.890;2022-09-20T13:53:44;1.00;;;0.40;;
41556;SDS011;27720;51.992;5.890;2022-09-20T13:58:53;0.82;;;0.35;;
41556;SDS011;27720;51.992;5.890;2022-09-20T14:01:30;5.22;;;1.20;;
41556;SDS011;27720;51.992;5.890;2022-09-20T14:04:08;3.30;;;0.68;;
41556;SDS011;27720;51.992;5.890;2022-09-20T14:06:40;3.03;;;0.52;;
41556;SDS011;27720;51.992;5.890;2022-09-20T14:09:07;0.73;;;0.40;;
41556;SDS011;27720;51.992;5.890;2022-09-20T14:11:42;2.38;;;0.50;;
41556;SDS011;27720;51.992;5.890;2022-09-20T14:14:07;3.45;;;0.50;;
41556;SDS011;27720;51.992;5.890;2022-09-20T14:16:39;1.70;;;0.60;;
41556;SDS011;27720;51.992;5.890;2022-09-20T14:19:09;1.00;;;0.40;;
41556;SDS011;27720;51.992;5.890;2022-09-20T14:26:42;0.50;;;0.30;;
41556;SDS011;27720;51.992;5.890;2022-09-20T14:31:59;1.60;;;0.20;;
41556;SDS011;27720;51.992;5.890;2022-09-20T14:34:48;2.95;;;0.30;;
41556;SDS011;27720;51.992;5.890;2022-09-20T14:37:24;0.60;;;0.25;;
41556;SDS011;27720;51.992;5.890;2022-09-20T14:40:03;1.85;;;0.40;;
41556;SDS011;27720;51.992;5.890;2022-09-20T14:42:44;0.30;;;0.20;;
41556;SDS011;27720;51.992;5.890;2022-09-20T14:45:30;0.57;;;0.20;;
41556;SDS011;27720;51.992;5.890;2022-09-20T14:48:04;2.15;;;0.50;;
41556;SDS011;27720;51.992;5.890;2022-09-20T14:50:37;0.20;;;0.20;;
41556;SDS011;27720;51.992;5.890;2022-09-20T14:58:24;1.23;;;0.30;;
41556;SDS011;27720;51.992;5.890;2022-09-20T15:00:54;4.05;;;0.50;;
41556;SDS011;27720;51.992;5.890;2022-09-20T15:03:38;2.13;;;0.50;;
41556;SDS011;27720;51.992;5.890;2022-09-20T15:06:10;1.08;;;0.30;;
41556;SDS011;27720;51.992;5.890;2022-09-20T15:08:37;1.20;;;0.28;;
41556;SDS011;27720;51.992;5.890;2022-09-20T15:11:04;4.47;;;0.88;;
41556;SDS011;27720;51.992;5.890;2022-09-20T15:13:30;1.85;;;0.38;;
41556;SDS011;27720;51.992;5.890;2022-09-20T15:15:56;3.38;;;0.32;;
41556;SDS011;27720;51.992;5.890;2022-09-20T15:20:52;0.63;;;0.30;;
41556;SDS011;27720;51.992;5.890;2022-09-20T15:23:23;1.30;;;0.40;;
41556;SDS011;27720;51.992;5.890;2022-09-20T15:26:07;4.38;;;0.35;;
41556;SDS011;27720;51.992;5.890;2022-09-20T15:29:08;2.75;;;0.60;;
41556;SDS011;27720;51.992;5.890;2022-09-20T15:32:14;3.60;;;0.40;;
41556;SDS011;27720;51.992;5.890;2022-09-20T15:34:59;1.40;;;0.47;;
41556;SDS011;27720;51.992;5.890;2022-09-20T15:37:58;2.75;;;0.70;;
41556;SDS011;27720;51.992;5.890;2022-09-20T15:40:27;3.80;;;0.30;;
41556;SDS011;27720;51.992;5.890;2022-09-20T15:46:37;1.88;;;0.40;;
41556;SDS011;27720;51.992;5.890;2022-09-20T15:49:18;2.35;;;0.35;;
41556;SDS011;27720;51.992;5.890;2022-09-20T15:52:14;2.20;;;0.35;;
41556;SDS011;27720;51.992;5.890;2022-09-20T15:55:02;2.15;;;0.22;;
41556;SDS011;27720;51.992;5.890;2022-09-20T15:57:28;4.55;;;0.68;;
41556;SDS011;27720;51.992;5.890;2022-09-20T15:59:55;2.00;;;0.38;;
41556;SDS011;27720;51.992;5.890;2022-09-20T16:02:22;0.82;;;0.30;;
41556;SDS011;27720;51.992;5.890;2022-09-20T16:04:48;0.20;;;0.20;;
41556;SDS011;27720;51.992;5.890;2022-09-20T16:07:19;2.20;;;0.30;;
41556;SDS011;27720;51.992;5.890;2022-09-20T16:09:53;1.27;;;0.30;;
41556;SDS011;27720;51.992;5.890;2022-09-20T16:12:20;1.70;;;0.30;;
41556;SDS011;27720;51.992;5.890;2022-09-20T16:14:47;2.33;;;0.50;;
41556;SDS011;27720;51.992;5.890;2022-09-20T16:17:13;4.13;;;0.35;;
41556;SDS011;27720;51.992;5.890;2022-09-20T16:19:39;0.73;;;0.40;;
41556;SDS011;27720;51.992;5.890;2022-09-20T16:24:57;1.65;;;0.20;;
41556;SDS011;27720;51.992;5.890;2022-09-20T16:27:31;0.52;;;0.20;;
41556;SDS011;27720;51.992;5.890;2022-09-20T16:29:59;0.73;;;0.30;;
41556;SDS011;27720;51.992;5.890;2022-09-20T16:32:26;1.17;;;0.40;;
41556;SDS011;27720;51.992;5.890;2022-09-20T16:34:52;3.33;;;0.30;;
41556;SDS011;27720;51.992;5.890;2022-09-20T16:37:19;2.38;;;0.20;;
41556;SDS011;27720;51.992;5.890;2022-09-20T16:39:46;1.20;;;0.30;;
41556;SDS011;27720;51.992;5.890;2022-09-20T16:42:12;0.50;;;0.30;;
41556;SDS011;27720;51.992;5.890;2022-09-20T16:44:39;0.90;;;0.25;;
41556;SDS011;27720;51.992;5.890;2022-09-20T16:47:10;3.40;;;0.45;;
41556;SDS011;27720;51.992;5.890;2022-09-20T16:49:37;0.93;;;0.30;;
41556;SDS011;27720;51.992;5.890;2022-09-20T16:52:05;0.60;;;0.25;;
41556;SDS011;27720;51.992;5.890;2022-09-20T16:54:31;2.97;;;0.32;;
41556;SDS011;27720;51.992;5.890;2022-09-20T16:57:01;2.72;;;0.43;;
41556;SDS011;27720;51.992;5.890;2022-09-20T16:59:27;1.85;;;0.30;;
41556;SDS011;27720;51.992;5.890;2022-09-20T17:02:02;1.08;;;0.32;;
41556;SDS011;27720;51.992;5.890;2022-09-20T17:04:46;2.72;;;0.40;;
41556;SDS011;27720;51.992;5.890;2022-09-20T17:07:23;1.85;;;0.45;;
41556;SDS011;27720;51.992;5.890;2022-09-20T17:09:49;2.20;;;0.60;;
41556;SDS011;27720;51.992;5.890;2022-09-20T17:12:15;2.88;;;0.50;;
41556;SDS011;27720;51.992;5.890;2022-09-20T17:14:46;2.08;;;0.40;;
41556;SDS011;27720;51.992;5.890;2022-09-20T17:17:11;0.93;;;0.40;;
41556;SDS011;27720;51.992;5.890;2022-09-20T17:19:50;1.05;;;0.40;;
41556;SDS011;27720;51.992;5.890;2022-09-20T17:25:21;2.53;;;0.40;;
41556;SDS011;27720;51.992;5.890;2022-09-20T17:28:18;2.63;;;0.60;;
41556;SDS011;27720;51.992;5.890;2022-09-20T17:30:44;1.85;;;0.47;;
41556;SDS011;27720;51.992;5.890;2022-09-20T17:33:09;2.17;;;0.40;;
41556;SDS011;27720;51.992;5.890;2022-09-20T17:35:35;2.13;;;0.43;;
41556;SDS011;27720;51.992;5.890;2022-09-20T17:38:01;1.02;;;0.63;;
41556;SDS011;27720;51.992;5.890;2022-09-20T17:40:27;1.33;;;0.55;;
41556;SDS011;27720;51.992;5.890;2022-09-20T17:42:53;2.22;;;0.40;;
41556;SDS011;27720;51.992;5.890;2022-09-20T17:45:19;3.13;;;0.80;;
41556;SDS011;27720;51.992;5.890;2022-09-20T17:47:45;4.35;;;0.60;;
41556;SDS011;27720;51.992;5.890;2022-09-20T17:50:11;1.27;;;0.63;;
41556;SDS011;27720;51.992;5.890;2022-09-20T17:52:39;1.40;;;0.73;;
41556;SDS011;27720;51.992;5.890;2022-09-20T17:55:11;2.97;;;0.98;;
41556;SDS011;27720;51.992;5.890;2022-09-20T17:58:44;3.47;;;1.40;;
41556;SDS011;27720;51.992;5.890;2022-09-20T18:01:31;5.00;;;1.23;;
41556;SDS011;27720;51.992;5.890;2022-09-20T18:07:00;2.67;;;1.40;;
41556;SDS011;27720;51.992;5.890;2022-09-20T18:10:01;2.13;;;1.25;;
41556;SDS011;27720;51.992;5.890;2022-09-20T18:13:11;1.63;;;0.98;;
41556;SDS011;27720;51.992;5.890;2022-09-20T18:15:53;1.52;;;1.38;;
41556;SDS011;27720;51.992;5.890;2022-09-20T18:18:27;1.30;;;0.90;;
41556;SDS011;27720;51.992;5.890;2022-09-20T18:21:16;4.20;;;1.52;;
41556;SDS011;27720;51.992;5.890;2022-09-20T18:24:12;3.63;;;1.10;;
41556;SDS011;27720;51.992;5.890;2022-09-20T18:26:55;3.97;;;1.50;;
41556;SDS011;27720;51.992;5.890;2022-09-20T18:29:21;3.08;;;1.55;;
41556;SDS011;27720;51.992;5.890;2022-09-20T18:31:49;4.22;;;1.88;;
41556;SDS011;27720;51.992;5.890;2022-09-20T18:34:20;5.88;;;2.20;;
41556;SDS011;27720;51.992;5.890;2022-09-20T18:36:59;4.32;;;1.60;;
41556;SDS011;27720;51.992;5.890;2022-09-20T18:39:33;3.08;;;1.38;;
41556;SDS011;27720;51.992;5.890;2022-09-20T18:41:59;3.92;;;1.38;;
41556;SDS011;27720;51.992;5.890;2022-09-20T18:44:29;5.00;;;2.13;;
41556;SDS011;27720;51.992;5.890;2022-09-20T18:46:58;3.38;;;1.67;;
41556;SDS011;27720;51.992;5.890;2022-09-20T18:49:27;5.63;;;1.80;;
41556;SDS011;27720;51.992;5.890;2022-09-20T18:51:54;3.45;;;1.95;;
41556;SDS011;27720;51.992;5.890;2022-09-20T18:54:21;4.57;;;2.55;;
41556;SDS011;27720;51.992;5.890;2022-09-20T18:56:48;4.18;;;2.30;;
41556;SDS011;27720;51.992;5.890;2022-09-20T18:59:18;3.70;;;2.15;;
41556;SDS011;27720;51.992;5.890;2022-09-20T19:14:06;6.05;;;1.75;;
41556;SDS011;27720;51.992;5.890;2022-09-20T19:17:10;3.40;;;1.70;;
41556;SDS011;27720;51.992;5.890;2022-09-20T19:20:47;3.63;;;2.05;;
41556;SDS011;27720;51.992;5.890;2022-09-20T19:26:23;4.65;;;1.73;;
41556;SDS011;27720;51.992;5.890;2022-09-20T19:29:50;3.03;;;1.45;;
41556;SDS011;27720;51.992;5.890;2022-09-20T19:32:19;5.43;;;2.45;;
41556;SDS011;27720;51.992;5.890;2022-09-20T19:35:02;5.75;;;2.92;;
41556;SDS011;27720;51.992;5.890;2022-09-20T19:49:07;7.03;;;3.05;;
41556;SDS011;27720;51.992;5.890;2022-09-20T19:51:45;8.80;;;2.70;;
41556;SDS011;27720;51.992;5.890;2022-09-20T19:54:11;5.05;;;2.30;;
41556;SDS011;27720;51.992;5.890;2022-09-20T19:56:55;6.47;;;2.45;;
41556;SDS011;27720;51.992;5.890;2022-09-20T19:59:24;7.05;;;2.10;;
41556;SDS011;27720;51.992;5.890;2022-09-20T20:01:53;6.57;;;2.65;;
41556;SDS011;27720;51.992;5.890;2022-09-20T20:04:27;4.20;;;2.38;;
41556;SDS011;27720;51.992;5.890;2022-09-20T20:15:20;8.65;;;2.20;;
41556;SDS011;27720;51.992;5.890;2022-09-20T20:18:23;3.28;;;1.52;;
41556;SDS011;27720;51.992;5.890;2022-09-20T20:21:06;3.90;;;1.92;;
41556;SDS011;27720;51.992;5.890;2022-09-20T20:24:07;3.05;;;1.40;;
41556;SDS011;27720;51.992;5.890;2022-09-20T20:26:47;3.28;;;1.35;;
41556;SDS011;27720;51.992;5.890;2022-09-20T20:29:14;2.40;;;1.10;;
41556;SDS011;27720;51.992;5.890;2022-09-20T20:31:45;1.95;;;0.90;;
41556;SDS011;27720;51.992;5.890;2022-09-20T20:34:13;4.07;;;1.00;;
41556;SDS011;27720;51.992;5.890;2022-09-20T20:36:45;1.35;;;0.60;;
41556;SDS011;27720;51.992;5.890;2022-09-20T20:39:14;3.83;;;1.38;;
41556;SDS011;27720;51.992;5.890;2022-09-20T20:41:40;3.92;;;1.40;;
41556;SDS011;27720;51.992;5.890;2022-09-20T20:44:07;1.30;;;0.70;;
41556;SDS011;27720;51.992;5.890;2022-09-20T20:46:40;5.07;;;1.00;;
41556;SDS011;27720;51.992;5.890;2022-09-20T20:49:12;1.33;;;0.70;;
41556;SDS011;27720;51.992;5.890;2022-09-20T20:51:38;5.40;;;0.73;;
41556;SDS011;27720;51.992;5.890;2022-09-20T20:54:04;1.30;;;0.90;;
41556;SDS011;27720;51.992;5.890;2022-09-20T20:56:30;1.75;;;0.93;;
41556;SDS011;27720;51.992;5.890;2022-09-20T20:59:01;4.60;;;0.80;;
41556;SDS011;27720;51.992;5.890;2022-09-20T21:04:30;2.38;;;0.80;;
41556;SDS011;27720;51.992;5.890;2022-09-20T21:07:17;2.72;;;1.10;;
41556;SDS011;27720;51.992;5.890;2022-09-20T21:09:49;2.38;;;0.88;;
41556;SDS011;27720;51.992;5.890;2022-09-20T21:18:36;1.90;;;0.88;;
41556;SDS011;27720;51.992;5.890;2022-09-20T21:28:27;2.17;;;0.88;;
41556;SDS011;27720;51.992;5.890;2022-09-20T21:35:43;1.15;;;0.50;;
41556;SDS011;27720;51.992;5.890;2022-09-20T21:38:35;1.08;;;0.47;;
41556;SDS011;27720;51.992;5.890;2022-09-20T21:41:47;0.80;;;0.50;;
41556;SDS011;27720;51.992;5.890;2022-09-20T21:44:54;0.77;;;0.50;;
41556;SDS011;27720;51.992;5.890;2022-09-20T21:47:50;1.08;;;0.50;;
41556;SDS011;27720;51.992;5.890;2022-09-20T21:50:16;3.60;;;0.60;;
41556;SDS011;27720;51.992;5.890;2022-09-20T21:52:43;0.95;;;0.60;;
41556;SDS011;27720;51.992;5.890;2022-09-20T21:55:10;0.60;;;0.40;;
41556;SDS011;27720;51.992;5.890;2022-09-20T21:57:36;3.28;;;0.60;;
41556;SDS011;27720;51.992;5.890;2022-09-20T22:00:02;1.02;;;0.50;;
41556;SDS011;27720;51.992;5.890;2022-09-20T22:02:37;1.08;;;0.50;;
41556;SDS011;27720;51.992;5.890;2022-09-20T22:05:03;0.90;;;0.45;;
41556;SDS011;27720;51.992;5.890;2022-09-20T22:07:29;3.60;;;0.55;;
41556;SDS011;27720;51.992;5.890;2022-09-20T22:09:55;5.82;;;0.60;;
41556;SDS011;27720;51.992;5.890;2022-09-20T22:12:20;3.72;;;0.45;;
41556;SDS011;27720;51.992;5.890;2022-09-20T22:14:46;0.90;;;0.40;;
41556;SDS011;27720;51.992;5.890;2022-09-20T22:17:12;1.20;;;0.43;;
41556;SDS011;27720;51.992;5.890;2022-09-20T22:19:37;0.50;;;0.40;;